createdAt,value
2022-12-09T00:01:22.839Z,96661.00
2022-12-09T00:03:50.889Z,96665.00
2022-12-09T00:06:29.950Z,96661.00
2022-12-09T00:08:58.647Z,96649.00
2022-12-09T00:11:26.802Z,96633.00
2022-12-09T00:13:57.345Z,96623.00
2022-12-09T00:16:25.681Z,96631.00
2022-12-09T00:18:53.639Z,96634.00
2022-12-09T00:21:33.021Z,96632.00
2022-12-09T00:24:05.007Z,96637.00
2022-12-09T00:26:33.671Z,96630.00
2022-12-09T00:29:01.815Z,96636.00
2022-12-09T00:31:33.613Z,96642.00
2022-12-09T00:34:05.210Z,96631.00
2022-12-09T00:36:33.559Z,96628.00
2022-12-09T00:39:01.586Z,96629.00
2022-12-09T00:41:29.630Z,96641.00
2022-12-09T00:43:58.540Z,96637.00
2022-12-09T00:46:25.996Z,96634.00
2022-12-09T00:48:53.787Z,96645.00
2022-12-09T00:51:24.167Z,96637.00
2022-12-09T00:53:54.903Z,96631.00
2022-12-09T00:56:26.557Z,96637.00
2022-12-09T00:58:54.473Z,96630.00
2022-12-09T01:01:21.798Z,96636.00
2022-12-09T01:03:49.310Z,96642.00
2022-12-09T01:06:21.047Z,96641.00
2022-12-09T01:08:49.324Z,96646.00
2022-12-09T01:11:21.085Z,96646.00
2022-12-09T01:13:50.177Z,96637.00
2022-12-09T01:16:24.889Z,96642.00
2022-12-09T01:18:54.794Z,96646.00
2022-12-09T01:21:22.196Z,96655.00
2022-12-09T01:23:49.555Z,96649.00
2022-12-09T01:26:17.076Z,96649.00
2022-12-09T01:28:44.991Z,96649.00
2022-12-09T01:31:20.862Z,96637.00
2022-12-09T01:33:48.609Z,96647.00
2022-12-09T01:36:26.423Z,96649.00
2022-12-09T01:38:54.678Z,96640.00
2022-12-09T01:41:23.333Z,96625.00
2022-12-09T01:44:24.321Z,96608.00
2022-12-09T01:47:00.196Z,96616.00
2022-12-09T01:49:48.235Z,96619.00
2022-12-09T01:52:22.656Z,96605.00
2022-12-09T01:54:53.503Z,96600.00
2022-12-09T01:57:21.094Z,96599.00
2022-12-09T01:59:48.541Z,96590.00
2022-12-09T02:02:18.061Z,96587.00
2022-12-09T02:04:48.775Z,96582.00
2022-12-09T02:07:18.809Z,96582.00
2022-12-09T02:09:46.212Z,96579.00
2022-12-09T02:12:16.231Z,96585.00
2022-12-09T02:15:07.647Z,96577.00
2022-12-09T02:17:57.417Z,96587.00
2022-12-09T02:20:47.475Z,96577.00
2022-12-09T02:23:35.035Z,96574.00
2022-12-09T02:26:23.831Z,96573.00
2022-12-09T02:29:32.991Z,96561.00
2022-12-09T02:32:39.229Z,96576.00
2022-12-09T02:35:11.383Z,96573.00
2022-12-09T02:37:50.528Z,96560.00
2022-12-09T02:40:25.700Z,96553.00
2022-12-09T02:42:54.612Z,96542.00
2022-12-09T02:45:25.137Z,96541.00
2022-12-09T02:47:53.901Z,96549.00
2022-12-09T02:50:29.924Z,96534.00
2022-12-09T02:53:01.531Z,96537.00
2022-12-09T02:55:31.588Z,96545.00
2022-12-09T02:58:01.495Z,96538.00
2022-12-09T03:00:29.601Z,96547.00
2022-12-09T03:03:03.778Z,96534.00
2022-12-09T03:05:36.945Z,96535.00
2022-12-09T03:08:32.531Z,96525.00
2022-12-09T03:11:09.889Z,96509.00
2022-12-09T03:14:20.199Z,96503.00
2022-12-09T03:16:55.379Z,96491.00
2022-12-09T03:19:34.421Z,96489.00
2022-12-09T03:22:07.124Z,96499.00
2022-12-09T03:24:52.071Z,96488.00
2022-12-09T03:27:26.578Z,96476.00
2022-12-09T03:29:56.254Z,96452.00
2022-12-09T03:32:27.564Z,96445.00
2022-12-09T03:35:07.783Z,96433.00
2022-12-09T03:37:38.750Z,96431.00
2022-12-09T03:40:14.340Z,96435.00
2022-12-09T03:42:53.225Z,96432.00
2022-12-09T03:45:23.731Z,96437.00
2022-12-09T03:47:52.134Z,96427.00
2022-12-09T03:50:24.095Z,96439.00
2022-12-09T03:53:05.398Z,96433.00
2022-12-09T03:55:55.738Z,96431.00
2022-12-09T03:58:23.592Z,96437.00
2022-12-09T04:00:51.920Z,96430.00
2022-12-09T04:03:19.999Z,96422.00
2022-12-09T04:05:47.797Z,96416.00
2022-12-09T04:08:15.257Z,96423.00
2022-12-09T04:10:42.956Z,96422.00
2022-12-09T04:13:10.468Z,96426.00
2022-12-09T04:15:38.077Z,96431.00
2022-12-09T04:18:05.714Z,96429.00
2022-12-09T04:20:32.895Z,96421.00
2022-12-09T04:23:00.246Z,96424.00
2022-12-09T04:25:27.539Z,96424.00
2022-12-09T04:27:54.619Z,96420.00
2022-12-09T04:30:21.988Z,96414.00
2022-12-09T04:32:49.400Z,96396.00
2022-12-09T04:35:16.999Z,96406.00
2022-12-09T04:37:44.128Z,96393.00
2022-12-09T04:40:16.675Z,96385.00
2022-12-09T04:42:47.462Z,96397.00
2022-12-09T04:45:14.720Z,96392.00
2022-12-09T04:47:42.214Z,96399.00
2022-12-09T04:50:10.445Z,96394.00
2022-12-09T04:52:37.928Z,96382.00
2022-12-09T04:55:06.148Z,96393.00
2022-12-09T04:57:33.530Z,96377.00
2022-12-09T05:00:00.604Z,96389.00
2022-12-09T05:02:28.187Z,96385.00
2022-12-09T05:04:55.823Z,96394.00
2022-12-09T05:07:23.941Z,96396.00
2022-12-09T05:09:51.551Z,96394.00
2022-12-09T05:12:18.934Z,96394.00
2022-12-09T05:14:46.979Z,96387.00
2022-12-09T05:17:14.406Z,96398.00
2022-12-09T05:19:42.073Z,96395.00
2022-12-09T05:22:09.204Z,96395.00
2022-12-09T05:24:37.068Z,96392.00
2022-12-09T05:27:04.369Z,96388.00
2022-12-09T05:29:31.645Z,96378.00
2022-12-09T05:31:58.955Z,96381.00
2022-12-09T05:34:26.665Z,96375.00
2022-12-09T05:36:54.222Z,96382.00
2022-12-09T05:39:21.604Z,96376.00
2022-12-09T05:41:49.583Z,96364.00
2022-12-09T05:44:17.215Z,96364.00
2022-12-09T05:46:44.893Z,96350.00
2022-12-09T05:49:12.753Z,96359.00
2022-12-09T05:51:40.271Z,96359.00
2022-12-09T05:54:07.624Z,96362.00
2022-12-09T05:56:35.170Z,96363.00
2022-12-09T05:59:02.685Z,96365.00
2022-12-09T06:01:30.055Z,96352.00
2022-12-09T06:03:57.868Z,96359.00
2022-12-09T06:06:32.714Z,96335.00
2022-12-09T06:09:02.745Z,96353.00
2022-12-09T06:11:32.420Z,96345.00
2022-12-09T06:14:00.183Z,96338.00
2022-12-09T06:16:27.698Z,96336.00
2022-12-09T06:18:55.572Z,96340.00
2022-12-09T06:21:23.695Z,96330.00
2022-12-09T06:23:52.167Z,96323.00
2022-12-09T06:26:26.056Z,96331.00
2022-12-09T06:28:55.439Z,96320.00
2022-12-09T06:31:24.002Z,96331.00
2022-12-09T06:33:57.253Z,96329.00
2022-12-09T06:36:27.334Z,96341.00
2022-12-09T06:38:56.697Z,96346.00
2022-12-09T06:41:24.634Z,96331.00
2022-12-09T06:43:52.606Z,96338.00
2022-12-09T06:46:26.171Z,96336.00
2022-12-09T06:48:55.229Z,96328.00
2022-12-09T06:51:25.108Z,96317.00
2022-12-09T06:53:54.176Z,96323.00
2022-12-09T06:56:21.650Z,96317.00
2022-12-09T06:58:49.106Z,96307.00
2022-12-09T07:01:23.613Z,96304.00
2022-12-09T07:03:56.217Z,96311.00
2022-12-09T07:06:36.323Z,96306.00
2022-12-09T07:09:19.264Z,96303.00
2022-12-09T07:11:47.281Z,96313.00
2022-12-09T07:14:17.004Z,96315.00
2022-12-09T07:16:45.251Z,96303.00
2022-12-09T07:19:18.326Z,96315.00
2022-12-09T07:21:46.331Z,96311.00
2022-12-09T07:24:14.604Z,96307.00
2022-12-09T07:26:41.988Z,96301.00
2022-12-09T07:29:09.313Z,96297.00
2022-12-09T07:31:37.443Z,96293.00
2022-12-09T07:34:05.751Z,96286.00
2022-12-09T07:36:35.764Z,96295.00
2022-12-09T07:39:10.378Z,96286.00
2022-12-09T07:41:37.563Z,96298.00
2022-12-09T07:44:05.501Z,96294.00
2022-12-09T07:46:33.269Z,96286.00
2022-12-09T07:49:02.993Z,96287.00
2022-12-09T07:51:30.958Z,96295.00
2022-12-09T07:53:58.737Z,96310.00
2022-12-09T07:56:26.193Z,96311.00
2022-12-09T07:58:54.471Z,96306.00
2022-12-09T08:01:26.051Z,96298.00
2022-12-09T08:03:54.633Z,96291.00
2022-12-09T08:06:26.386Z,96304.00
2022-12-09T08:08:55.011Z,96298.00
2022-12-09T08:11:26.501Z,96286.00
2022-12-09T08:13:57.050Z,96297.00
2022-12-09T08:16:25.716Z,96301.00
2022-12-09T08:18:54.589Z,96302.00
2022-12-09T08:21:31.266Z,96287.00
2022-12-09T08:24:01.530Z,96267.00
2022-12-09T08:26:32.237Z,96254.00
2022-12-09T08:29:00.152Z,96257.00
2022-12-09T08:31:28.646Z,96260.00
2022-12-09T08:33:57.111Z,96265.00
2022-12-09T08:36:27.790Z,96261.00
2022-12-09T08:38:59.457Z,96260.00
2022-12-09T08:41:36.291Z,96260.00
2022-12-09T08:44:18.761Z,96266.00
2022-12-09T08:46:50.201Z,96262.00
2022-12-09T08:49:22.087Z,96257.00
2022-12-09T08:51:51.913Z,96267.00
2022-12-09T08:54:20.216Z,96269.00
2022-12-09T08:56:50.791Z,96268.00
2022-12-09T08:59:18.760Z,96275.00
2022-12-09T09:01:46.479Z,96267.00
2022-12-09T09:04:18.263Z,96263.00
2022-12-09T09:06:50.295Z,96259.00
2022-12-09T09:09:20.374Z,96248.00
2022-12-09T09:11:48.906Z,96247.00
2022-12-09T09:14:16.662Z,96250.00
2022-12-09T09:16:45.336Z,96246.00
2022-12-09T09:19:21.613Z,96255.00
2022-12-09T09:21:49.976Z,96248.00
2022-12-09T09:24:21.589Z,96232.00
2022-12-09T09:26:50.971Z,96215.00
2022-12-09T09:29:21.314Z,96218.00
2022-12-09T09:31:49.822Z,96220.00
2022-12-09T09:34:19.236Z,96228.00
2022-12-09T09:36:47.795Z,96219.00
2022-12-09T09:39:15.389Z,96215.00
2022-12-09T09:41:44.530Z,96210.00
2022-12-09T09:44:36.107Z,96216.00
2022-12-09T09:47:18.265Z,96227.00
2022-12-09T09:50:03.508Z,96218.00
2022-12-09T09:52:31.850Z,96213.00
2022-12-09T09:54:59.360Z,96215.00
2022-12-09T09:57:42.542Z,96219.00
2022-12-09T10:00:23.706Z,96222.00
2022-12-09T10:03:10.744Z,96221.00
2022-12-09T10:05:51.870Z,96217.00
2022-12-09T10:08:57.384Z,96206.00
2022-12-09T10:11:35.339Z,96203.00
2022-12-09T10:14:42.202Z,96189.00
2022-12-09T10:17:20.375Z,96181.00
2022-12-09T10:19:53.786Z,96179.00
2022-12-09T10:22:26.588Z,96183.00
2022-12-09T10:25:00.836Z,96171.00
2022-12-09T10:27:38.998Z,96175.00
2022-12-09T10:30:16.205Z,96177.00
2022-12-09T10:32:44.272Z,96173.00
2022-12-09T10:35:27.757Z,96160.00
2022-12-09T10:38:07.523Z,96170.00
2022-12-09T10:40:46.962Z,96163.00
2022-12-09T10:43:38.882Z,96159.00
2022-12-09T10:46:18.855Z,96157.00
2022-12-09T10:48:47.577Z,96166.00
2022-12-09T10:51:19.622Z,96156.00
2022-12-09T10:53:54.124Z,96164.00
2022-12-09T10:56:36.104Z,96164.00
2022-12-09T10:59:26.653Z,96155.00
2022-12-09T11:02:03.851Z,96154.00
2022-12-09T11:04:40.544Z,96138.00
2022-12-09T11:07:08.058Z,96145.00
2022-12-09T11:09:39.536Z,96139.00
2022-12-09T11:12:19.438Z,96135.00
2022-12-09T11:15:03.696Z,96135.00
2022-12-09T11:17:37.634Z,96128.00
2022-12-09T11:20:24.711Z,96126.00
2022-12-09T11:23:03.345Z,96127.00
2022-12-09T11:25:36.003Z,96121.00
2022-12-09T11:28:15.210Z,96113.00
2022-12-09T11:31:27.546Z,96111.00
2022-12-09T11:33:52.975Z,96110.00
2022-12-09T11:36:36.861Z,96094.00
2022-12-09T11:39:29.153Z,96107.00
2022-12-09T11:42:17.419Z,96100.00
2022-12-09T11:45:27.743Z,96090.00
2022-12-09T11:48:35.061Z,96092.00
2022-12-09T11:51:06.296Z,96084.00
2022-12-09T11:53:40.765Z,96087.00
2022-12-09T11:56:21.210Z,96081.00
2022-12-09T11:59:01.311Z,96083.00
2022-12-09T12:01:52.384Z,96067.00
2022-12-09T12:04:34.465Z,96067.00
2022-12-09T12:07:30.755Z,96065.00
2022-12-09T12:09:59.223Z,96058.00
2022-12-09T12:13:13.442Z,96062.00
2022-12-09T12:16:39.247Z,96056.00
2022-12-09T12:19:14.332Z,96055.00
2022-12-09T12:22:21.990Z,96050.00
2022-12-09T12:25:18.383Z,96050.00
2022-12-09T12:28:21.293Z,96055.00
2022-12-09T12:31:09.192Z,96040.00
2022-12-09T12:34:24.490Z,96034.00
2022-12-09T12:37:17.683Z,96030.00
2022-12-09T12:40:09.745Z,96038.00
2022-12-09T12:43:49.006Z,96035.00
2022-12-09T12:46:21.926Z,96026.00
2022-12-09T12:49:39.878Z,96030.00
2022-12-09T12:52:39.513Z,96015.00
2022-12-09T12:55:49.006Z,96007.00
2022-12-09T12:58:39.736Z,96012.00
2022-12-09T13:01:34.594Z,96021.00
2022-12-09T13:04:07.921Z,96017.00
2022-12-09T13:07:16.247Z,96021.00
2022-12-09T13:09:53.598Z,96026.00
2022-12-09T13:12:55.058Z,96024.00
2022-12-09T13:15:37.734Z,96033.00
2022-12-09T13:18:17.955Z,96041.00
2022-12-09T13:21:06.653Z,96031.00
2022-12-09T13:23:47.562Z,96032.00
2022-12-09T13:26:45.509Z,96032.00
2022-12-09T13:29:12.631Z,96034.00
2022-12-09T13:32:10.768Z,96031.00
2022-12-09T13:34:46.706Z,96022.00
2022-12-09T13:37:36.745Z,96024.00
2022-12-09T13:40:30.767Z,96025.00
2022-12-09T13:43:03.825Z,96020.00
2022-12-09T13:45:50.131Z,96023.00
2022-12-09T13:48:17.700Z,96015.00
2022-12-09T13:51:00.247Z,96015.00
2022-12-09T13:53:46.394Z,96020.00
2022-12-09T13:56:16.688Z,96026.00
2022-12-09T13:58:49.818Z,96028.00
2022-12-09T14:01:29.260Z,96026.00
2022-12-09T14:04:35.559Z,96018.00
2022-12-09T14:07:37.108Z,96009.00
2022-12-09T14:10:06.059Z,96010.00
2022-12-09T14:12:33.498Z,95994.00
2022-12-09T14:15:25.000Z,96003.00
2022-12-09T14:17:52.183Z,96001.00
2022-12-09T14:20:45.591Z,96011.00
2022-12-09T14:23:16.940Z,96021.00
2022-12-09T14:25:55.808Z,96022.00
2022-12-09T14:28:43.895Z,96015.00
2022-12-09T14:31:11.079Z,96012.00
2022-12-09T14:33:46.716Z,96012.00
2022-12-09T14:36:13.710Z,96023.00
2022-12-09T14:42:05.732Z,96027.00
2022-12-09T14:45:26.132Z,96020.00
2022-12-09T14:47:53.359Z,96012.00
2022-12-09T14:50:24.555Z,96003.00
2022-12-09T14:53:01.179Z,96009.00
2022-12-09T14:55:30.192Z,96003.00
2022-12-09T14:58:00.794Z,96005.00
2022-12-09T15:00:36.113Z,96006.00
2022-12-09T15:03:32.249Z,96017.00
2022-12-09T15:06:05.434Z,96024.00
2022-12-09T15:08:41.713Z,96024.00
2022-12-09T15:11:29.051Z,96036.00
2022-12-09T15:14:18.665Z,96030.00
2022-12-09T15:16:50.533Z,96055.00
2022-12-09T15:19:58.611Z,96057.00
2022-12-09T15:22:24.451Z,96059.00
2022-12-09T15:24:53.144Z,96057.00
2022-12-09T15:27:23.508Z,96058.00
2022-12-09T15:29:52.007Z,96059.00
2022-12-09T15:32:28.182Z,96048.00
2022-12-09T15:34:55.834Z,96049.00
2022-12-09T15:37:27.934Z,96055.00
2022-12-09T15:40:08.613Z,96058.00
2022-12-09T15:42:41.341Z,96054.00
2022-12-09T15:45:16.891Z,96063.00
2022-12-09T15:48:00.500Z,96070.00
2022-12-09T15:50:41.189Z,96064.00
2022-12-09T15:53:23.318Z,96066.00
2022-12-09T15:56:06.351Z,96061.00
2022-12-09T15:58:45.169Z,96051.00
2022-12-09T16:01:22.729Z,96062.00
2022-12-09T16:03:52.124Z,96057.00
2022-12-09T16:06:30.092Z,96063.00
2022-12-09T16:08:57.794Z,96055.00
2022-12-09T16:11:45.993Z,96061.00
2022-12-09T16:14:14.132Z,96066.00
2022-12-09T16:17:01.661Z,96070.00
2022-12-09T16:19:32.519Z,96058.00
2022-12-09T16:22:30.206Z,96066.00
2022-12-09T16:25:25.059Z,96073.00
2022-12-09T16:27:59.550Z,96069.00
2022-12-09T16:30:30.919Z,96072.00
2022-12-09T16:33:01.299Z,96077.00
2022-12-09T16:35:45.375Z,96077.00
2022-12-09T16:38:18.136Z,96090.00
2022-12-09T16:40:45.251Z,96082.00
2022-12-09T16:43:20.483Z,96093.00
2022-12-09T16:45:51.230Z,96083.00
2022-12-09T16:48:20.416Z,96094.00
2022-12-09T16:51:12.812Z,96086.00
2022-12-09T16:53:45.766Z,96099.00
2022-12-09T16:56:28.434Z,96101.00
2022-12-09T16:58:56.995Z,96105.00
2022-12-09T17:01:34.925Z,96099.00
2022-12-09T17:04:12.779Z,96109.00
2022-12-09T17:06:39.969Z,96099.00
2022-12-09T17:09:07.199Z,96086.00
2022-12-09T17:11:35.304Z,96101.00
2022-12-09T17:14:02.433Z,96086.00
2022-12-09T17:16:29.676Z,96083.00
2022-12-09T17:18:57.028Z,96093.00
2022-12-09T17:21:24.167Z,96094.00
2022-12-09T17:23:51.438Z,96105.00
2022-12-09T17:26:20.434Z,96113.00
2022-12-09T17:28:48.812Z,96114.00
2022-12-09T17:31:20.355Z,96117.00
2022-12-09T17:33:48.323Z,96111.00
2022-12-09T17:36:18.669Z,96114.00
2022-12-09T17:38:46.346Z,96112.00
2022-12-09T17:41:19.169Z,96121.00
2022-12-09T17:43:46.615Z,96135.00
2022-12-09T17:46:14.930Z,96142.00
2022-12-09T17:48:42.441Z,96147.00
2022-12-09T17:51:13.587Z,96146.00
2022-12-09T17:53:42.785Z,96150.00
2022-12-09T17:56:20.021Z,96145.00
2022-12-09T17:59:09.232Z,96144.00
2022-12-09T18:01:38.489Z,96143.00
2022-12-09T18:04:11.323Z,96143.00
2022-12-09T18:06:47.983Z,96159.00
2022-12-09T18:09:18.248Z,96161.00
2022-12-09T18:11:46.719Z,96167.00
2022-12-09T18:14:14.753Z,96176.00
2022-12-09T18:16:42.347Z,96164.00
2022-12-09T18:19:16.733Z,96189.00
2022-12-09T18:21:45.127Z,96195.00
2022-12-09T18:24:12.965Z,96193.00
2022-12-09T18:26:42.166Z,96194.00
2022-12-09T18:29:11.350Z,96195.00
2022-12-09T18:31:39.712Z,96200.00
2022-12-09T18:34:07.402Z,96203.00
2022-12-09T18:36:34.453Z,96204.00
2022-12-09T18:39:01.486Z,96199.00
2022-12-09T18:41:31.616Z,96205.00
2022-12-09T18:44:04.972Z,96214.00
2022-12-09T18:46:39.042Z,96207.00
2022-12-09T18:49:17.266Z,96202.00
2022-12-09T18:51:46.781Z,96201.00
2022-12-09T18:54:23.498Z,96200.00
2022-12-09T18:56:51.741Z,96208.00
2022-12-09T18:59:21.899Z,96210.00
2022-12-09T19:01:50.111Z,96210.00
2022-12-09T19:04:24.227Z,96209.00
2022-12-09T19:06:55.369Z,96219.00
2022-12-09T19:09:33.470Z,96228.00
2022-12-09T19:12:30.113Z,96231.00
2022-12-09T19:14:52.091Z,96229.00
2022-12-09T19:17:20.154Z,96214.00
2022-12-09T19:19:48.964Z,96222.00
2022-12-09T19:22:16.007Z,96219.00
2022-12-09T19:24:44.324Z,96223.00
2022-12-09T19:27:11.424Z,96236.00
2022-12-09T19:29:39.588Z,96222.00
2022-12-09T19:32:23.672Z,96221.00
2022-12-09T19:34:54.205Z,96217.00
2022-12-09T19:37:21.491Z,96219.00
2022-12-09T19:39:49.155Z,96221.00
2022-12-09T19:42:16.494Z,96234.00
2022-12-09T19:45:00.903Z,96230.00
2022-12-09T19:47:29.300Z,96235.00
2022-12-09T19:49:56.377Z,96244.00
2022-12-09T19:52:23.571Z,96245.00
2022-12-09T19:54:50.685Z,96243.00
2022-12-09T19:57:17.850Z,96240.00
2022-12-09T19:59:45.609Z,96229.00
2022-12-09T20:02:14.034Z,96251.00
2022-12-09T20:04:49.974Z,96238.00
2022-12-09T20:07:18.124Z,96244.00
2022-12-09T20:09:45.368Z,96256.00
2022-12-09T20:12:12.705Z,96258.00
2022-12-09T20:14:40.250Z,96256.00
2022-12-09T20:17:08.088Z,96259.00
2022-12-09T20:19:36.761Z,96267.00
2022-12-09T20:22:04.732Z,96257.00
2022-12-09T20:24:32.021Z,96252.00
2022-12-09T20:26:59.645Z,96258.00
2022-12-09T20:29:29.068Z,96259.00
2022-12-09T20:31:59.648Z,96262.00
2022-12-09T20:34:26.835Z,96260.00
2022-12-09T20:36:54.123Z,96248.00
2022-12-09T20:39:21.711Z,96247.00
2022-12-09T20:41:49.537Z,96255.00
2022-12-09T20:44:18.587Z,96253.00
2022-12-09T20:46:48.957Z,96266.00
2022-12-09T20:49:16.666Z,96276.00
2022-12-09T20:51:48.669Z,96268.00
2022-12-09T20:54:16.368Z,96274.00
2022-12-09T20:56:43.764Z,96282.00
2022-12-09T20:59:13.734Z,96273.00
2022-12-09T21:01:41.786Z,96288.00
2022-12-09T21:04:09.195Z,96288.00
2022-12-09T21:06:39.616Z,96284.00
2022-12-09T21:09:11.066Z,96292.00
2022-12-09T21:11:38.850Z,96291.00
2022-12-09T21:14:07.116Z,96290.00
2022-12-09T21:16:39.224Z,96293.00
2022-12-09T21:19:10.376Z,96295.00
2022-12-09T21:21:40.521Z,96291.00
2022-12-09T21:24:10.031Z,96303.00
2022-12-09T21:26:37.294Z,96305.00
2022-12-09T21:29:04.713Z,96305.00
2022-12-09T21:31:37.173Z,96309.00
2022-12-09T21:34:07.438Z,96308.00
2022-12-09T21:36:47.978Z,96312.00
2022-12-09T21:39:16.752Z,96294.00
2022-12-09T21:41:44.509Z,96299.00
2022-12-09T21:44:17.648Z,96305.00
2022-12-09T21:46:46.186Z,96298.00
2022-12-09T21:49:13.738Z,96312.00
2022-12-09T21:51:41.268Z,96310.00
2022-12-09T21:54:08.774Z,96308.00
2022-12-09T21:56:36.985Z,96314.00
2022-12-09T21:59:06.496Z,96311.00
2022-12-09T22:01:37.751Z,96307.00
2022-12-09T22:04:08.088Z,96308.00
2022-12-09T22:06:35.964Z,96313.00
2022-12-09T22:09:06.294Z,96297.00
2022-12-09T22:11:37.334Z,96304.00
2022-12-09T22:14:05.685Z,96309.00
2022-12-09T22:16:37.564Z,96311.00
2022-12-09T22:19:08.457Z,96305.00
2022-12-09T22:21:36.805Z,96304.00
2022-12-09T22:24:07.564Z,96311.00
2022-12-09T22:26:35.498Z,96317.00
2022-12-09T22:29:05.625Z,96318.00
2022-12-09T22:31:38.996Z,96324.00
2022-12-09T22:34:20.514Z,96337.00
2022-12-09T22:36:49.598Z,96335.00
2022-12-09T22:39:21.855Z,96326.00
2022-12-09T22:41:49.203Z,96327.00
2022-12-09T22:44:20.004Z,96330.00
2022-12-09T22:46:47.942Z,96329.00
2022-12-09T22:49:16.586Z,96332.00
2022-12-09T22:51:44.949Z,96330.00
2022-12-09T22:54:13.656Z,96343.00
2022-12-09T22:56:43.209Z,96337.00
2022-12-09T22:59:12.044Z,96326.00
2022-12-09T23:01:39.163Z,96315.00
2022-12-09T23:04:08.337Z,96326.00
2022-12-09T23:06:38.310Z,96316.00
2022-12-09T23:09:08.715Z,96315.00
2022-12-09T23:11:36.393Z,96316.00
2022-12-09T23:14:04.314Z,96312.00
2022-12-09T23:16:33.157Z,96316.00
2022-12-09T23:19:00.590Z,96315.00
2022-12-09T23:21:32.649Z,96326.00
2022-12-09T23:24:04.832Z,96324.00
2022-12-09T23:26:37.071Z,96327.00
2022-12-09T23:29:07.884Z,96321.00
2022-12-09T23:31:37.633Z,96318.00
2022-12-09T23:34:07.631Z,96324.00
2022-12-09T23:36:38.574Z,96312.00
2022-12-09T23:39:09.933Z,96313.00
2022-12-09T23:41:39.446Z,96302.00
2022-12-09T23:44:13.472Z,96306.00
2022-12-09T23:46:42.602Z,96311.00
2022-12-09T23:49:10.163Z,96297.00
2022-12-09T23:51:40.904Z,96307.00
2022-12-09T23:54:09.998Z,96300.00
2022-12-09T23:56:40.455Z,96310.00
2022-12-09T23:59:12.168Z,96302.00
